sensor_id;sensor_type;location;lat;lon;timestamp;pressure;altitude;pressure_sealevel;temperature;humidity
15193;BME280;7697;51.630;7.484;2024-03-02T00:04:44;-17381.28;;;9.17;81.59
15193;BME280;7697;51.630;7.484;2024-03-02T00:09:46;-17381.44;;;9.18;81.82
15193;BME280;7697;51.630;7.484;2024-03-02T00:14:49;-17382.47;;;9.21;82.43
15193;BME280;7697;51.630;7.484;2024-03-02T00:19:51;-17381.78;;;9.19;82.27
15193;BME280;7697;51.630;7.484;2024-03-02T00:24:54;-17385.47;;;9.30;82.25
15193;BME280;7697;51.630;7.484;2024-03-02T00:29:57;-17387.16;;;9.35;82.44
15193;BME280;7697;51.630;7.484;2024-03-02T00:34:59;-17390.16;;;9.44;81.88
15193;BME280;7697;51.630;7.484;2024-03-02T00:40:00;-17392.84;;;9.52;81.38
15193;BME280;7697;51.630;7.484;2024-03-02T00:45:07;-17394.69;;;9.58;80.88
15193;BME280;7697;51.630;7.484;2024-03-02T00:50:10;-17394.03;;;9.56;81.04
15193;BME280;7697;51.630;7.484;2024-03-02T00:55:12;-17392.53;;;9.51;80.78
15193;BME280;7697;51.630;7.484;2024-03-02T01:00:16;-17395.88;;;9.61;81.00
15193;BME280;7697;51.630;7.484;2024-03-02T01:05:18;-17398.38;;;9.69;80.29
15193;BME280;7697;51.630;7.484;2024-03-02T01:10:20;-17396.88;;;9.64;80.72
15193;BME280;7697;51.630;7.484;2024-03-02T01:15:23;-17398.22;;;9.68;80.39
15193;BME280;7697;51.630;7.484;2024-03-02T01:20:25;-17399.72;;;9.73;80.34
15193;BME280;7697;51.630;7.484;2024-03-02T01:25:27;-17400.41;;;9.75;80.16
15193;BME280;7697;51.630;7.484;2024-03-02T01:30:30;-17400.75;;;9.76;79.68
15193;BME280;7697;51.630;7.484;2024-03-02T01:35:32;-17400.56;;;9.75;80.00
15193;BME280;7697;51.630;7.484;2024-03-02T01:40:35;-17401.91;;;9.79;80.02
15193;BME280;7697;51.630;7.484;2024-03-02T01:45:39;-17402.59;;;9.82;79.64
15193;BME280;7697;51.630;7.484;2024-03-02T01:50:40;-17401.75;;;9.79;79.45
15193;BME280;7697;51.630;7.484;2024-03-02T01:55:42;-17402.59;;;9.82;79.11
15193;BME280;7697;51.630;7.484;2024-03-02T02:00:45;-17401.91;;;9.79;79.01
15193;BME280;7697;51.630;7.484;2024-03-02T02:05:48;-17404.09;;;9.86;79.21
15193;BME280;7697;51.630;7.484;2024-03-02T02:10:50;-17401.41;;;9.78;79.38
15193;BME280;7697;51.630;7.484;2024-03-02T02:15:54;-17402.09;;;9.80;79.20
15193;BME280;7697;51.630;7.484;2024-03-02T02:20:55;-17403.25;;;9.84;78.46
15193;BME280;7697;51.630;7.484;2024-03-02T02:25:59;-17402.59;;;9.82;78.80
15193;BME280;7697;51.630;7.484;2024-03-02T02:31:00;-17401.41;;;9.78;78.74
15193;BME280;7697;51.630;7.484;2024-03-02T02:36:04;-17402.25;;;9.81;78.05
15193;BME280;7697;51.630;7.484;2024-03-02T02:41:07;-17402.25;;;9.81;78.17
15193;BME280;7697;51.630;7.484;2024-03-02T02:46:09;-17404.25;;;9.87;78.43
15193;BME280;7697;51.630;7.484;2024-03-02T02:51:10;-17405.28;;;9.90;77.92
15193;BME280;7697;51.630;7.484;2024-03-02T02:56:14;-17404.94;;;9.89;77.67
15193;BME280;7697;51.630;7.484;2024-03-02T03:01:16;-17404.94;;;9.89;77.77
15193;BME280;7697;51.630;7.484;2024-03-02T03:06:18;-17405.28;;;9.90;78.23
15193;BME280;7697;51.630;7.484;2024-03-02T03:11:22;-17406.94;;;9.95;77.81
15193;BME280;7697;51.630;7.484;2024-03-02T03:16:25;-17408.28;;;9.99;77.88
15193;BME280;7697;51.630;7.484;2024-03-02T03:21:27;-17409.78;;;10.03;78.00
15193;BME280;7697;51.630;7.484;2024-03-02T03:26:30;-17407.94;;;9.98;77.41
15193;BME280;7697;51.630;7.484;2024-03-02T03:31:32;-17406.09;;;9.92;77.89
15193;BME280;7697;51.630;7.484;2024-03-02T03:36:33;-17405.28;;;9.90;77.53
15193;BME280;7697;51.630;7.484;2024-03-02T03:41:37;-17405.78;;;9.91;77.81
15193;BME280;7697;51.630;7.484;2024-03-02T03:46:38;-17403.59;;;9.85;77.49
15193;BME280;7697;51.630;7.484;2024-03-02T03:51:40;-17402.75;;;9.82;77.77
15193;BME280;7697;51.630;7.484;2024-03-02T03:56:43;-17403.09;;;9.83;78.10
15193;BME280;7697;51.630;7.484;2024-03-02T04:01:45;-17403.25;;;9.84;78.33
15193;BME280;7697;51.630;7.484;2024-03-02T04:06:47;-17400.91;;;9.76;77.89
15193;BME280;7697;51.630;7.484;2024-03-02T04:11:50;-17401.91;;;9.79;78.27
15193;BME280;7697;51.630;7.484;2024-03-02T04:16:52;-17402.25;;;9.81;77.69
15193;BME280;7697;51.630;7.484;2024-03-02T04:21:53;-17401.91;;;9.79;78.46
15193;BME280;7697;51.630;7.484;2024-03-02T04:26:57;-17402.25;;;9.81;77.96
15193;BME280;7697;51.630;7.484;2024-03-02T04:31:58;-17400.56;;;9.75;77.95
15193;BME280;7697;51.630;7.484;2024-03-02T04:37:00;-17397.56;;;9.66;77.55
15193;BME280;7697;51.630;7.484;2024-03-02T04:42:04;-17398.22;;;9.68;77.98
15193;BME280;7697;51.630;7.484;2024-03-02T04:47:06;-17396.53;;;9.63;78.52
15193;BME280;7697;51.630;7.484;2024-03-02T04:52:07;-17396.22;;;9.62;78.42
15193;BME280;7697;51.630;7.484;2024-03-02T04:57:11;-17396.22;;;9.62;78.45
15193;BME280;7697;51.630;7.484;2024-03-02T05:02:12;-17396.72;;;9.64;78.24
15193;BME280;7697;51.630;7.484;2024-03-02T05:07:15;-17395.53;;;9.60;78.42
15193;BME280;7697;51.630;7.484;2024-03-02T05:12:18;-17393.03;;;9.53;78.81
15193;BME280;7697;51.630;7.484;2024-03-02T05:17:55;-17391.00;;;9.47;78.66
15193;BME280;7697;51.630;7.484;2024-03-02T05:22:59;-17389.16;;;9.41;79.02
15193;BME280;7697;51.630;7.484;2024-03-02T05:28:03;-17384.47;;;9.27;79.26
15193;BME280;7697;51.630;7.484;2024-03-02T05:33:05;-17384.13;;;9.26;79.50
15193;BME280;7697;51.630;7.484;2024-03-02T05:38:07;-17382.47;;;9.21;79.35
15193;BME280;7697;51.630;7.484;2024-03-02T05:43:10;-17381.97;;;9.19;79.74
15193;BME280;7697;51.630;7.484;2024-03-02T05:48:12;-17380.09;;;9.14;79.93
15193;BME280;7697;51.630;7.484;2024-03-02T05:53:14;-17377.44;;;9.06;80.49
15193;BME280;7697;51.630;7.484;2024-03-02T05:58:17;-17377.75;;;9.07;80.97
15193;BME280;7697;51.630;7.484;2024-03-02T06:03:28;-17377.25;;;9.05;80.69
15193;BME280;7697;51.630;7.484;2024-03-02T06:08:29;-17377.75;;;9.07;81.00
15193;BME280;7697;51.630;7.484;2024-03-02T06:13:33;-17377.44;;;9.06;80.59
15193;BME280;7697;51.630;7.484;2024-03-02T06:18:34;-17376.91;;;9.04;81.16
15193;BME280;7697;51.630;7.484;2024-03-02T06:23:36;-17377.09;;;9.04;81.42
15193;BME280;7697;51.630;7.484;2024-03-02T06:28:39;-17378.44;;;9.09;81.22
15193;BME280;7697;51.630;7.484;2024-03-02T06:33:41;-17380.63;;;9.15;81.19
15193;BME280;7697;51.630;7.484;2024-03-02T06:38:43;-17379.78;;;9.13;80.94
15193;BME280;7697;51.630;7.484;2024-03-02T06:43:48;-17378.94;;;9.10;81.09
15193;BME280;7697;51.630;7.484;2024-03-02T06:48:50;-17380.28;;;9.14;81.33
15193;BME280;7697;51.630;7.484;2024-03-02T06:53:51;-17380.28;;;9.14;81.64
15193;BME280;7697;51.630;7.484;2024-03-02T06:58:55;-17381.97;;;9.19;81.31
15193;BME280;7697;51.630;7.484;2024-03-02T07:03:56;-17384.31;;;9.26;80.82
15193;BME280;7697;51.630;7.484;2024-03-02T07:08:58;-17385.81;;;9.31;80.67
15193;BME280;7697;51.630;7.484;2024-03-02T07:14:01;-17386.66;;;9.33;80.75
15193;BME280;7697;51.630;7.484;2024-03-02T07:19:03;-17387.66;;;9.36;80.91
15193;BME280;7697;51.630;7.484;2024-03-02T07:24:05;-17391.34;;;9.48;80.52
15193;BME280;7697;51.630;7.484;2024-03-02T07:29:11;-17397.72;;;9.67;80.19
15193;BME280;7697;51.630;7.484;2024-03-02T07:34:13;-17406.59;;;9.94;80.01
15193;BME280;7697;51.630;7.484;2024-03-02T07:39:14;-17411.66;;;10.09;79.49
15193;BME280;7697;51.630;7.484;2024-03-02T07:44:18;-17418.69;;;10.30;78.94
15193;BME280;7697;51.630;7.484;2024-03-02T07:49:20;-17424.41;;;10.47;78.69
15193;BME280;7697;51.630;7.484;2024-03-02T07:54:22;-17430.59;;;10.66;77.79
15193;BME280;7697;51.630;7.484;2024-03-02T07:59:25;-17439.16;;;10.92;77.34
15193;BME280;7697;51.630;7.484;2024-03-02T08:04:27;-17445.03;;;11.10;76.66
15193;BME280;7697;51.630;7.484;2024-03-02T08:09:29;-17454.59;;;11.39;75.77
15193;BME280;7697;51.630;7.484;2024-03-02T08:14:32;-17461.97;;;11.61;74.99
15193;BME280;7697;51.630;7.484;2024-03-02T08:19:34;-17467.69;;;11.78;74.53
15193;BME280;7697;51.630;7.484;2024-03-02T08:24:35;-17477.09;;;12.07;74.58
15193;BME280;7697;51.630;7.484;2024-03-02T08:29:39;-17483.63;;;12.26;73.39
15193;BME280;7697;51.630;7.484;2024-03-02T08:34:41;-17489.00;;;12.43;72.62
15193;BME280;7697;51.630;7.484;2024-03-02T08:39:44;-17495.38;;;12.62;72.82
15193;BME280;7697;51.630;7.484;2024-03-02T08:44:48;-17500.41;;;12.77;71.06
15193;BME280;7697;51.630;7.484;2024-03-02T08:49:50;-17505.09;;;12.91;70.09
15193;BME280;7697;51.630;7.484;2024-03-02T08:54:52;-17511.31;;;13.10;69.60
15193;BME280;7697;51.630;7.484;2024-03-02T08:59:55;-17517.69;;;13.29;68.84
15193;BME280;7697;51.630;7.484;2024-03-02T09:04:57;-17524.06;;;13.48;68.53
15193;BME280;7697;51.630;7.484;2024-03-02T09:09:59;-17535.63;;;13.83;67.66
15193;BME280;7697;51.630;7.484;2024-03-02T09:15:03;-17538.81;;;13.93;67.34
15193;BME280;7697;51.630;7.484;2024-03-02T09:20:07;-17551.56;;;14.32;67.06
15193;BME280;7697;51.630;7.484;2024-03-02T09:25:09;-17559.13;;;14.54;65.42
15193;BME280;7697;51.630;7.484;2024-03-02T09:30:13;-17567.34;;;14.79;65.93
15193;BME280;7697;51.630;7.484;2024-03-02T09:35:15;-17576.75;;;15.08;63.92
15193;BME280;7697;51.630;7.484;2024-03-02T09:40:17;-17573.22;;;14.97;62.88
15193;BME280;7697;51.630;7.484;2024-03-02T09:45:23;-17582.13;;;15.24;61.80
15193;BME280;7697;51.630;7.484;2024-03-02T09:50:25;-17590.69;;;15.50;62.92
15193;BME280;7697;51.630;7.484;2024-03-02T09:55:27;-17600.91;;;15.81;62.29
15193;BME280;7697;51.630;7.484;2024-03-02T10:00:30;-17609.31;;;16.06;62.21
15193;BME280;7697;51.630;7.484;2024-03-02T10:05:31;-17624.25;;;16.51;61.29
15193;BME280;7697;51.630;7.484;2024-03-02T10:10:37;-17640.38;;;17.00;59.87
15193;BME280;7697;51.630;7.484;2024-03-02T10:15:43;-17650.75;;;17.31;57.40
15193;BME280;7697;51.630;7.484;2024-03-02T10:20:45;-17649.41;;;17.27;57.72
15193;BME280;7697;51.630;7.484;2024-03-02T10:25:49;-17654.13;;;17.41;57.19
15193;BME280;7697;51.630;7.484;2024-03-02T10:30:52;-17657.97;;;17.53;57.39
15193;BME280;7697;51.630;7.484;2024-03-02T10:35:54;-17661.00;;;17.62;57.03
15193;BME280;7697;51.630;7.484;2024-03-02T10:40:57;-17671.41;;;17.93;55.59
15193;BME280;7697;51.630;7.484;2024-03-02T10:46:01;-17679.63;;;18.18;54.70
15193;BME280;7697;51.630;7.484;2024-03-02T10:51:03;-17686.00;;;18.37;54.97
15193;BME280;7697;51.630;7.484;2024-03-02T10:56:07;-17690.53;;;18.51;53.43
15193;BME280;7697;51.630;7.484;2024-03-02T11:01:13;-17691.88;;;18.55;52.60
15193;BME280;7697;51.630;7.484;2024-03-02T11:06:15;-17691.22;;;18.53;53.50
15193;BME280;7697;51.630;7.484;2024-03-02T11:11:22;-17706.66;;;19.00;52.48
15193;BME280;7697;51.630;7.484;2024-03-02T11:16:34;-17704.31;;;18.93;51.76
15193;BME280;7697;51.630;7.484;2024-03-02T11:21:37;-17714.69;;;19.24;52.29
15193;BME280;7697;51.630;7.484;2024-03-02T11:26:39;-17720.41;;;19.41;50.28
15193;BME280;7697;51.630;7.484;2024-03-02T11:32:14;-17723.59;;;19.51;49.01
15193;BME280;7697;51.630;7.484;2024-03-02T11:37:17;-17725.78;;;19.58;49.73
15193;BME280;7697;51.630;7.484;2024-03-02T11:42:19;-17738.38;;;19.96;49.86
15193;BME280;7697;51.630;7.484;2024-03-02T11:47:22;-17739.22;;;19.98;46.54
15193;BME280;7697;51.630;7.484;2024-03-02T11:52:24;-17725.97;;;19.58;48.20
15193;BME280;7697;51.630;7.484;2024-03-02T11:57:28;-17728.81;;;19.67;48.11
15193;BME280;7697;51.630;7.484;2024-03-02T12:02:34;-17742.56;;;20.08;47.65
15193;BME280;7697;51.630;7.484;2024-03-02T12:07:35;-17745.25;;;20.16;48.14
15193;BME280;7697;51.630;7.484;2024-03-02T12:12:37;-17749.28;;;20.29;47.03
15193;BME280;7697;51.630;7.484;2024-03-02T12:17:41;-17749.63;;;20.30;46.26
15193;BME280;7697;51.630;7.484;2024-03-02T12:22:43;-17752.97;;;20.40;47.97
15193;BME280;7697;51.630;7.484;2024-03-02T12:27:46;-17746.94;;;20.21;47.92
15193;BME280;7697;51.630;7.484;2024-03-02T12:32:50;-17735.19;;;19.86;48.74
15193;BME280;7697;51.630;7.484;2024-03-02T12:37:53;-17721.06;;;19.43;48.25
15193;BME280;7697;51.630;7.484;2024-03-02T12:42:55;-17702.63;;;18.88;48.49
15193;BME280;7697;51.630;7.484;2024-03-02T12:47:59;-17699.94;;;18.80;49.04
15193;BME280;7697;51.630;7.484;2024-03-02T12:53:01;-17697.94;;;18.73;49.69
15193;BME280;7697;51.630;7.484;2024-03-02T12:58:03;-17704.47;;;18.93;49.23
15193;BME280;7697;51.630;7.484;2024-03-02T13:03:06;-17708.16;;;19.04;47.88
15193;BME280;7697;51.630;7.484;2024-03-02T13:08:08;-17709.84;;;19.09;49.11
15193;BME280;7697;51.630;7.484;2024-03-02T13:13:10;-17712.03;;;19.16;48.62
15193;BME280;7697;51.630;7.484;2024-03-02T13:18:13;-17717.22;;;19.32;48.82
15193;BME280;7697;51.630;7.484;2024-03-02T13:23:15;-17721.75;;;19.45;48.42
15193;BME280;7697;51.630;7.484;2024-03-02T13:28:17;-17714.69;;;19.24;47.36
15193;BME280;7697;51.630;7.484;2024-03-02T13:33:20;-17707.66;;;19.03;48.63
15193;BME280;7697;51.630;7.484;2024-03-02T13:38:23;-17699.59;;;18.79;49.60
15193;BME280;7697;51.630;7.484;2024-03-02T13:43:25;-17677.13;;;18.11;49.59
15193;BME280;7697;51.630;7.484;2024-03-02T13:48:28;-17667.03;;;17.80;50.74
15193;BME280;7697;51.630;7.484;2024-03-02T13:53:31;-17663.19;;;17.69;50.43
15193;BME280;7697;51.630;7.484;2024-03-02T13:58:33;-17654.63;;;17.43;51.36
15193;BME280;7697;51.630;7.484;2024-03-02T14:03:36;-17650.25;;;17.30;51.19
15193;BME280;7697;51.630;7.484;2024-03-02T14:08:38;-17646.72;;;17.19;51.89
15193;BME280;7697;51.630;7.484;2024-03-02T14:13:40;-17647.06;;;17.20;51.33
15193;BME280;7697;51.630;7.484;2024-03-02T14:18:43;-17641.88;;;17.04;51.74
15193;BME280;7697;51.630;7.484;2024-03-02T14:23:45;-17640.03;;;16.99;52.15
15193;BME280;7697;51.630;7.484;2024-03-02T14:28:47;-17637.50;;;16.91;51.85
15193;BME280;7697;51.630;7.484;2024-03-02T14:33:50;-17632.13;;;16.75;52.45
15193;BME280;7697;51.630;7.484;2024-03-02T14:38:53;-17634.81;;;16.83;52.95
15193;BME280;7697;51.630;7.484;2024-03-02T14:43:55;-17632.13;;;16.75;52.64
15193;BME280;7697;51.630;7.484;2024-03-02T14:48:59;-17633.66;;;16.79;53.22
15193;BME280;7697;51.630;7.484;2024-03-02T14:54:00;-17636.16;;;16.87;53.34
15193;BME280;7697;51.630;7.484;2024-03-02T14:59:03;-17632.81;;;16.77;53.26
15193;BME280;7697;51.630;7.484;2024-03-02T15:04:06;-17628.94;;;16.65;53.73
15193;BME280;7697;51.630;7.484;2024-03-02T15:09:08;-17627.25;;;16.60;53.66
15193;BME280;7697;51.630;7.484;2024-03-02T15:14:10;-17621.56;;;16.43;54.18
15193;BME280;7697;51.630;7.484;2024-03-02T15:19:13;-17620.38;;;16.39;54.94
15193;BME280;7697;51.630;7.484;2024-03-02T15:24:14;-17617.38;;;16.30;55.10
15193;BME280;7697;51.630;7.484;2024-03-02T15:29:16;-17613.00;;;16.17;55.78
15193;BME280;7697;51.630;7.484;2024-03-02T15:34:20;-17612.00;;;16.14;56.29
15193;BME280;7697;51.630;7.484;2024-03-02T15:39:23;-17613.00;;;16.17;56.44
15193;BME280;7697;51.630;7.484;2024-03-02T15:44:25;-17611.31;;;16.12;56.57
15193;BME280;7697;51.630;7.484;2024-03-02T15:49:28;-17610.50;;;16.09;56.67
15193;BME280;7697;51.630;7.484;2024-03-02T15:54:32;-17609.31;;;16.06;56.12
15193;BME280;7697;51.630;7.484;2024-03-02T15:59:34;-17605.28;;;15.94;57.20
15193;BME280;7697;51.630;7.484;2024-03-02T16:04:37;-17606.47;;;15.97;57.18
15193;BME280;7697;51.630;7.484;2024-03-02T16:09:39;-17603.44;;;15.88;57.07
15193;BME280;7697;51.630;7.484;2024-03-02T16:14:40;-17602.94;;;15.87;57.74
15193;BME280;7697;51.630;7.484;2024-03-02T16:19:44;-17602.75;;;15.86;57.42
15193;BME280;7697;51.630;7.484;2024-03-02T16:24:45;-17598.91;;;15.74;57.04
15193;BME280;7697;51.630;7.484;2024-03-02T16:29:47;-17598.06;;;15.72;56.48
15193;BME280;7697;51.630;7.484;2024-03-02T16:34:50;-17596.38;;;15.67;56.99
15193;BME280;7697;51.630;7.484;2024-03-02T16:39:52;-17592.69;;;15.56;57.18
15193;BME280;7697;51.630;7.484;2024-03-02T16:44:55;-17614.00;;;16.20;55.63
15193;BME280;7697;51.630;7.484;2024-03-02T16:49:59;-17612.66;;;16.16;55.71
15193;BME280;7697;51.630;7.484;2024-03-02T16:55:01;-17591.53;;;15.52;56.92
15193;BME280;7697;51.630;7.484;2024-03-02T17:00:04;-17586.50;;;15.37;57.38
15193;BME280;7697;51.630;7.484;2024-03-02T17:05:09;-17582.28;;;15.24;58.03
15193;BME280;7697;51.630;7.484;2024-03-02T17:10:11;-17580.63;;;15.19;58.22
15193;BME280;7697;51.630;7.484;2024-03-02T17:15:14;-17581.28;;;15.21;58.87
15193;BME280;7697;51.630;7.484;2024-03-02T17:20:17;-17572.72;;;14.95;59.39
15193;BME280;7697;51.630;7.484;2024-03-02T17:25:19;-17570.72;;;14.89;60.19
15193;BME280;7697;51.630;7.484;2024-03-02T17:30:21;-17568.88;;;14.84;60.29
15193;BME280;7697;51.630;7.484;2024-03-02T17:35:24;-17564.84;;;14.72;60.82
15193;BME280;7697;51.630;7.484;2024-03-02T17:40:26;-17561.16;;;14.60;61.52
15193;BME280;7697;51.630;7.484;2024-03-02T17:45:29;-17559.47;;;14.55;61.54
15193;BME280;7697;51.630;7.484;2024-03-02T17:50:32;-17557.97;;;14.51;62.53
15193;BME280;7697;51.630;7.484;2024-03-02T17:55:34;-17555.44;;;14.43;63.57
15193;BME280;7697;51.630;7.484;2024-03-02T18:00:37;-17553.44;;;14.37;63.58
15193;BME280;7697;51.630;7.484;2024-03-02T18:05:40;-17550.75;;;14.29;64.64
15193;BME280;7697;51.630;7.484;2024-03-02T18:10:42;-17548.56;;;14.22;64.56
15193;BME280;7697;51.630;7.484;2024-03-02T18:15:44;-17547.22;;;14.18;65.43
15193;BME280;7697;51.630;7.484;2024-03-02T18:20:47;-17543.53;;;14.07;65.47
15193;BME280;7697;51.630;7.484;2024-03-02T18:25:50;-17544.53;;;14.10;65.71
15193;BME280;7697;51.630;7.484;2024-03-02T18:30:51;-17542.84;;;14.05;65.91
15193;BME280;7697;51.630;7.484;2024-03-02T18:35:55;-17540.50;;;13.98;66.53
15193;BME280;7697;51.630;7.484;2024-03-02T18:40:56;-17540.16;;;13.97;66.04
15193;BME280;7697;51.630;7.484;2024-03-02T18:45:59;-17538.16;;;13.91;65.84
15193;BME280;7697;51.630;7.484;2024-03-02T18:51:06;-17536.66;;;13.86;65.83
15193;BME280;7697;51.630;7.484;2024-03-02T18:56:09;-17535.63;;;13.83;66.22
15193;BME280;7697;51.630;7.484;2024-03-02T19:01:11;-17534.63;;;13.80;65.93
15193;BME280;7697;51.630;7.484;2024-03-02T19:06:15;-17533.28;;;13.76;66.21
15193;BME280;7697;51.630;7.484;2024-03-02T19:11:17;-17531.78;;;13.72;65.88
15193;BME280;7697;51.630;7.484;2024-03-02T19:16:20;-17528.09;;;13.61;66.16
15193;BME280;7697;51.630;7.484;2024-03-02T19:21:23;-17527.41;;;13.59;66.88
15193;BME280;7697;51.630;7.484;2024-03-02T19:26:25;-17525.41;;;13.52;66.64
15193;BME280;7697;51.630;7.484;2024-03-02T19:31:27;-17522.72;;;13.44;66.43
15193;BME280;7697;51.630;7.484;2024-03-02T19:36:30;-17522.22;;;13.43;66.42
15193;BME280;7697;51.630;7.484;2024-03-02T19:41:32;-17518.34;;;13.31;66.60
15193;BME280;7697;51.630;7.484;2024-03-02T19:46:34;-17517.69;;;13.29;67.53
15193;BME280;7697;51.630;7.484;2024-03-02T19:51:37;-17514.50;;;13.20;67.62
15193;BME280;7697;51.630;7.484;2024-03-02T19:56:38;-17510.97;;;13.09;67.86
15193;BME280;7697;51.630;7.484;2024-03-02T20:01:40;-17510.97;;;13.09;67.73
15193;BME280;7697;51.630;7.484;2024-03-02T20:06:44;-17509.13;;;13.03;68.39
15193;BME280;7697;51.630;7.484;2024-03-02T20:11:49;-17507.63;;;12.99;68.63
15193;BME280;7697;51.630;7.484;2024-03-02T20:16:51;-17506.28;;;12.95;68.61
15193;BME280;7697;51.630;7.484;2024-03-02T20:21:54;-17504.25;;;12.89;68.80
15193;BME280;7697;51.630;7.484;2024-03-02T20:26:56;-17503.41;;;12.86;69.29
15193;BME280;7697;51.630;7.484;2024-03-02T20:31:58;-17501.41;;;12.80;69.35
15193;BME280;7697;51.630;7.484;2024-03-02T20:37:01;-17498.56;;;12.71;69.66
15193;BME280;7697;51.630;7.484;2024-03-02T20:42:05;-17499.22;;;12.73;69.55
15193;BME280;7697;51.630;7.484;2024-03-02T20:47:06;-17496.38;;;12.65;70.45
15193;BME280;7697;51.630;7.484;2024-03-02T20:52:10;-17492.69;;;12.54;70.69
15193;BME280;7697;51.630;7.484;2024-03-02T20:57:11;-17487.81;;;12.39;71.72
15193;BME280;7697;51.630;7.484;2024-03-02T21:02:13;-17485.63;;;12.32;71.63
15193;BME280;7697;51.630;7.484;2024-03-02T21:07:16;-17484.78;;;12.30;72.00
15193;BME280;7697;51.630;7.484;2024-03-02T21:12:18;-17482.63;;;12.23;72.08
15193;BME280;7697;51.630;7.484;2024-03-02T21:17:20;-17481.78;;;12.21;72.69
15193;BME280;7697;51.630;7.484;2024-03-02T21:22:23;-17480.94;;;12.18;72.69
15193;BME280;7697;51.630;7.484;2024-03-02T21:27:25;-17479.59;;;12.14;73.26
15193;BME280;7697;51.630;7.484;2024-03-02T21:32:27;-17478.25;;;12.10;73.54
15193;BME280;7697;51.630;7.484;2024-03-02T21:37:30;-17477.25;;;12.07;73.55
15193;BME280;7697;51.630;7.484;2024-03-02T21:42:31;-17477.09;;;12.07;73.79
15193;BME280;7697;51.630;7.484;2024-03-02T21:47:33;-17477.25;;;12.07;73.70
15193;BME280;7697;51.630;7.484;2024-03-02T21:52:36;-17477.75;;;12.09;73.45
15193;BME280;7697;51.630;7.484;2024-03-02T21:57:38;-17477.09;;;12.07;74.13
15193;BME280;7697;51.630;7.484;2024-03-02T22:02:40;-17475.75;;;12.02;74.19
15193;BME280;7697;51.630;7.484;2024-03-02T22:07:43;-17473.91;;;11.97;74.29
15193;BME280;7697;51.630;7.484;2024-03-02T22:12:45;-17489.66;;;12.45;73.82
15193;BME280;7697;51.630;7.484;2024-03-02T22:17:47;-17476.91;;;12.06;74.73
15193;BME280;7697;51.630;7.484;2024-03-02T22:22:50;-17473.06;;;11.94;74.80
15193;BME280;7697;51.630;7.484;2024-03-02T22:27:52;-17473.06;;;11.94;75.35
15193;BME280;7697;51.630;7.484;2024-03-02T22:32:56;-17471.72;;;11.90;75.37
15193;BME280;7697;51.630;7.484;2024-03-02T22:37:59;-17470.88;;;11.88;75.27
15193;BME280;7697;51.630;7.484;2024-03-02T22:43:01;-17471.22;;;11.89;75.29
15193;BME280;7697;51.630;7.484;2024-03-02T22:48:03;-17469.69;;;11.84;75.36
15193;BME280;7697;51.630;7.484;2024-03-02T22:53:06;-17469.19;;;11.83;75.48
15193;BME280;7697;51.630;7.484;2024-03-02T22:58:08;-17469.53;;;11.84;75.78
15193;BME280;7697;51.630;7.484;2024-03-02T23:03:10;-17468.53;;;11.81;76.20
15193;BME280;7697;51.630;7.484;2024-03-02T23:08:13;-17469.03;;;11.82;75.85
15193;BME280;7697;51.630;7.484;2024-03-02T23:13:15;-17468.84;;;11.82;76.02
15193;BME280;7697;51.630;7.484;2024-03-02T23:18:17;-17469.53;;;11.84;75.76
15193;BME280;7697;51.630;7.484;2024-03-02T23:23:21;-17470.72;;;11.87;76.08
15193;BME280;7697;51.630;7.484;2024-03-02T23:28:22;-17471.72;;;11.90;76.00
15193;BME280;7697;51.630;7.484;2024-03-02T23:33:24;-17470.19;;;11.86;75.86
15193;BME280;7697;51.630;7.484;2024-03-02T23:38:27;-17470.38;;;11.86;76.04
15193;BME280;7697;51.630;7.484;2024-03-02T23:43:29;-17469.69;;;11.84;76.19
15193;BME280;7697;51.630;7.484;2024-03-02T23:48:31;-17469.19;;;11.83;76.19
15193;BME280;7697;51.630;7.484;2024-03-02T23:53:34;-17469.69;;;11.84;76.70
15193;BME280;7697;51.630;7.484;2024-03-02T23:58:36;-17467.84;;;11.79;76.71
